Aviation Digital Data Service (ADDS)

Output produced by METARs form (1311 UTC 23 January 2019)
found at http://www.aviationweather.gov/metar/data/
 
Forecast for: AMD
Text: TAF AMD LFOE 231233Z 2312/2409 30012KT 0650 SN BKN003 OVC006
Forecast period: 1200 to 1900 UTC 23 January 2019
Forecast type: FROM: standard forecast or significant change
Winds: from the WNW (300 degrees) at 14 MPH (12 knots; 6.2 m/s)
Visibility: 0.40 miles (0.64 km)
Ceiling: 300 feet AGL
Clouds: broken clouds at 300 feet AGL
overcast cloud deck at 600 feet AGL
Weather: SN  (moderate snow)
Text: BECMG 2319/2321 BKN004
Forecast period: 1900 UTC 23 January 2019 to 0900 UTC 24 January 2019
Forecast type: BECOMING: Conditions expected to become as follows by 2100 UTC 23 January 2019
Winds: from the WNW (300 degrees) at 14 MPH (12 knots; 6.2 m/s)
Visibility: 0.40 miles (0.64 km)
Ceiling: 400 feet AGL
Clouds: broken clouds at 400 feet AGL
Weather: SN  (moderate snow)
Text: PROB30
Forecast period: 0200 to 0800 UTC 24 January 2019
Forecast type: TEMPORARY: The following changes expected for less than half the time period
Visibility: 0.19 miles (0.31 km)
Ceiling: unknown
Clouds: missing
Weather: FZFG  (freezing fog)